Time;durP1;ratioP1;P1;durP2;ratioP2;P2;SDS_P1;SDS_P2;PMS_P1;PMS_P2;Temp;Humidity;BMP_temperature;BMP_pressure;BME280_temperature;BME280_humidity;BME280_pressure;Samples;Min_cycle;Max_cycle;Signal;HPM_P1;HPM_P2
2022/08/21 00:00:15;;;;;;;1.35;1.05;;;19.20;99.90;;;;;;5055050;28;20053;-76
2022/08/21 00:02:47;;;;;;;0.32;0.32;;;19.20;99.90;;;;;;5037014;28;20041;-76
2022/08/21 00:05:16;;;;;;;0.82;0.55;;;19.10;99.90;;;;;;5054657;28;20045;-76
2022/08/21 00:07:44;;;;;;;0.52;0.52;;;19.10;99.90;;;;;;5054693;28;20076;-76
2022/08/21 00:10:11;;;;;;;2.97;1.30;;;19.10;99.90;;;;;;5054750;28;20040;-76
2022/08/21 00:12:39;;;;;;;7.55;4.00;;;19.10;99.90;;;;;;5052327;28;20044;-76
2022/08/21 00:15:08;;;;;;;0.28;0.28;;;19.00;99.90;;;;;;5055084;28;20037;-76
2022/08/21 00:17:36;;;;;;;0.93;0.90;;;19.10;99.90;;;;;;5054682;28;20045;-75
2022/08/21 00:20:05;;;;;;;6.65;1.45;;;19.10;99.90;;;;;;5054755;28;20045;-76
2022/08/21 00:22:34;;;;;;;0.75;0.75;;;19.10;99.90;;;;;;5036805;28;20053;-75
2022/08/21 00:25:02;;;;;;;1.10;0.90;;;19.10;99.90;;;;;;5064714;28;20055;-75
2022/08/21 00:27:29;;;;;;;3.10;0.32;;;19.10;99.90;;;;;;5039980;28;20042;-75
2022/08/21 00:29:57;;;;;;;1.30;0.88;;;19.10;99.90;;;;;;5034544;28;20048;-75
2022/08/21 00:32:26;;;;;;;0.00;0.00;;;19.00;99.90;;;;;;5034623;28;20052;-76
2022/08/21 00:34:54;;;;;;;0.10;0.10;;;19.00;99.90;;;;;;5043725;28;20415;-76
2022/08/21 00:37:22;;;;;;;0.40;0.40;;;18.90;99.90;;;;;;5053998;28;20518;-76
2022/08/21 00:39:51;;;;;;;0.00;0.00;;;18.90;99.90;;;;;;5036801;28;20072;-76
2022/08/21 00:42:19;;;;;;;0.47;0.47;;;18.80;99.90;;;;;;5054196;28;20075;-76
2022/08/21 00:44:49;;;;;;;0.00;0.00;;;18.90;99.90;;;;;;5052581;28;20064;-76
2022/08/21 00:47:16;;;;;;;0.60;0.30;;;18.80;99.90;;;;;;5036715;28;20049;-74
2022/08/21 00:49:44;;;;;;;0.03;0.03;;;18.80;99.90;;;;;;5036512;28;20047;-75
2022/08/21 00:52:16;;;;;;;0.03;0.03;;;18.80;99.90;;;;;;5053857;28;20033;-76
2022/08/21 00:54:44;;;;;;;0.20;0.20;;;18.80;99.90;;;;;;5053964;28;20079;-76
2022/08/21 00:57:16;;;;;;;0.05;0.05;;;18.80;99.90;;;;;;5036264;28;20496;-76
2022/08/21 00:59:46;;;;;;;1.55;0.90;;;18.80;99.90;;;;;;5021765;28;20058;-75
2022/08/21 01:02:14;;;;;;;1.73;0.68;;;18.90;99.90;;;;;;5016288;28;20041;-75
2022/08/21 01:04:42;;;;;;;0.43;0.43;;;18.80;99.90;;;;;;5036117;28;20049;-77
2022/08/21 01:07:09;;;;;;;0.10;0.10;;;18.80;99.90;;;;;;5035927;28;20421;-77
2022/08/21 01:09:37;;;;;;;0.03;0.03;;;18.80;99.90;;;;;;5053640;28;20041;-77
2022/08/21 01:12:05;;;;;;;0.20;0.20;;;18.80;99.90;;;;;;5043771;28;20041;-78
2022/08/21 01:14:34;;;;;;;0.20;0.20;;;18.70;99.90;;;;;;5033670;28;20117;-77
2022/08/21 01:17:03;;;;;;;0.20;0.20;;;18.80;99.90;;;;;;5033978;28;20046;-77
2022/08/21 01:19:31;;;;;;;0.10;0.10;;;18.80;99.90;;;;;;5042953;28;20033;-77
2022/08/21 01:22:00;;;;;;;2.20;0.52;;;18.80;99.90;;;;;;5053814;28;20067;-77
2022/08/21 01:24:28;;;;;;;0.30;0.10;;;18.80;99.90;;;;;;5059415;28;20047;-77
2022/08/21 01:26:55;;;;;;;0.73;0.47;;;18.90;99.90;;;;;;5068716;28;20037;-75
2022/08/21 01:29:31;;;;;;;4.10;2.10;;;18.90;99.90;;;;;;5069296;28;20160;-77
2022/08/21 01:31:59;;;;;;;0.10;0.10;;;18.80;99.90;;;;;;5055306;28;20084;-78
2022/08/21 01:34:27;;;;;;;4.38;1.75;;;18.80;99.90;;;;;;5051485;28;20041;-78
2022/08/21 01:36:55;;;;;;;0.45;0.45;;;18.80;99.90;;;;;;5070442;28;20044;-78
2022/08/21 01:39:24;;;;;;;8.30;1.10;;;18.80;99.90;;;;;;5056891;28;20052;-79
2022/08/21 01:41:51;;;;;;;0.10;0.10;;;18.80;99.90;;;;;;5036994;28;20048;-79
2022/08/21 01:44:22;;;;;;;0.30;0.30;;;18.80;99.90;;;;;;5056201;28;20041;-80
2022/08/21 01:46:50;;;;;;;1.95;0.63;;;18.80;99.90;;;;;;5058878;28;20092;-80
2022/08/21 01:49:18;;;;;;;0.00;0.00;;;18.80;99.90;;;;;;5057637;28;20041;-80
2022/08/21 01:51:45;;;;;;;2.60;1.15;;;18.80;99.90;;;;;;5041133;28;20049;-81
2022/08/21 01:54:13;;;;;;;0.93;0.80;;;18.80;99.90;;;;;;5061462;28;20045;-80
2022/08/21 01:56:44;;;;;;;37.28;1.50;;;18.80;99.90;;;;;;5060735;28;20076;-80
2022/08/21 01:59:12;;;;;;;0.10;0.10;;;18.80;99.90;;;;;;5051265;28;20079;-80
2022/08/21 02:01:40;;;;;;;0.10;0.10;;;18.80;99.90;;;;;;5040752;28;20099;-80
2022/08/21 02:04:08;;;;;;;14.60;1.20;;;18.80;99.90;;;;;;5022374;28;20072;-80
2022/08/21 02:06:36;;;;;;;0.85;0.77;;;18.80;99.90;;;;;;5039782;28;20045;-80
2022/08/21 02:09:05;;;;;;;3.78;1.45;;;18.70;99.90;;;;;;5024225;28;20041;-79
2022/08/21 02:11:33;;;;;;;0.17;0.17;;;18.80;99.90;;;;;;5040343;28;20043;-80
2022/08/21 02:14:02;;;;;;;0.32;0.20;;;18.80;99.90;;;;;;5042756;28;20041;-79
2022/08/21 02:16:29;;;;;;;2.58;1.20;;;18.70;99.90;;;;;;5042470;28;20546;-81
2022/08/21 02:19:00;;;;;;;0.00;0.00;;;18.70;99.90;;;;;;5028944;28;20503;-80
2022/08/21 02:21:28;;;;;;;0.10;0.10;;;18.70;99.90;;;;;;5061633;28;20075;-79
2022/08/21 02:23:55;;;;;;;0.15;0.15;;;18.70;99.90;;;;;;5043081;28;20040;-78
2022/08/21 02:26:22;;;;;;;0.25;0.25;;;18.70;99.90;;;;;;5067614;28;20048;-78
2022/08/21 02:28:50;;;;;;;0.00;0.00;;;18.70;99.90;;;;;;5038721;28;20033;-78
2022/08/21 02:31:18;;;;;;;0.10;0.10;;;18.70;99.90;;;;;;5038526;28;20069;-79
2022/08/21 02:33:46;;;;;;;0.20;0.05;;;18.70;99.90;;;;;;5020211;28;20045;-78
2022/08/21 02:36:13;;;;;;;0.05;0.05;;;18.70;99.90;;;;;;5058648;28;20095;-79
2022/08/21 02:38:42;;;;;;;0.00;0.00;;;18.70;99.90;;;;;;5060018;28;20056;-78
2022/08/21 02:41:12;;;;;;;1.10;0.93;;;18.70;99.90;;;;;;5052775;28;20053;-76
2022/08/21 02:43:39;;;;;;;0.57;0.50;;;18.70;99.90;;;;;;5020756;28;20050;-78
2022/08/21 02:46:08;;;;;;;0.00;0.00;;;18.70;99.90;;;;;;5039396;28;20045;-77
2022/08/21 02:48:37;;;;;;;0.45;0.40;;;18.70;99.90;;;;;;5038683;28;20037;-77
2022/08/21 02:51:07;;;;;;;0.43;0.43;;;18.70;99.90;;;;;;5039053;28;20053;-76
2022/08/21 02:53:35;;;;;;;1.55;1.05;;;18.70;99.90;;;;;;5026409;28;20448;-76
2022/08/21 02:56:07;;;;;;;5.10;2.40;;;18.70;99.90;;;;;;5029063;28;20489;-76
2022/08/21 02:58:38;;;;;;;0.32;0.28;;;18.70;99.90;;;;;;5048398;28;20041;-76
2022/08/21 03:01:09;;;;;;;0.00;0.00;;;18.70;99.90;;;;;;5020597;28;20053;-77
2022/08/21 03:03:40;;;;;;;0.35;0.35;;;18.70;99.90;;;;;;5036271;28;20499;-77
2022/08/21 03:06:09;;;;;;;0.10;0.10;;;18.70;99.90;;;;;;5038183;28;20049;-77
2022/08/21 03:08:36;;;;;;;0.17;0.17;;;18.70;99.90;;;;;;5039395;28;20041;-77
2022/08/21 03:11:04;;;;;;;0.57;0.57;;;18.70;99.90;;;;;;5038631;28;20045;-77
2022/08/21 03:13:31;;;;;;;9.43;0.70;;;18.70;99.90;;;;;;5056369;28;20045;-77
2022/08/21 03:15:59;;;;;;;0.90;0.70;;;18.80;99.90;;;;;;5057449;28;20094;-78
2022/08/21 03:18:27;;;;;;;0.00;0.00;;;18.70;99.90;;;;;;5039628;28;20094;-78
2022/08/21 03:20:55;;;;;;;0.40;0.40;;;18.70;99.90;;;;;;5057100;28;20044;-78
2022/08/21 03:23:23;;;;;;;0.47;0.45;;;18.70;99.90;;;;;;5055953;28;20128;-78
2022/08/21 03:25:50;;;;;;;0.60;0.55;;;18.80;99.90;;;;;;5073985;28;20040;-78
2022/08/21 03:28:22;;;;;;;0.28;0.28;;;18.80;99.90;;;;;;5077432;28;20079;-78
2022/08/21 03:30:51;;;;;;;0.28;0.28;;;18.80;99.90;;;;;;5059107;28;20060;-77
2022/08/21 03:33:19;;;;;;;0.25;0.25;;;18.80;99.90;;;;;;5059222;28;20059;-77
2022/08/21 03:35:53;;;;;;;0.98;0.65;;;18.70;99.90;;;;;;5058996;28;20051;-76
2022/08/21 03:38:21;;;;;;;0.00;0.00;;;18.70;99.90;;;;;;5044215;28;20045;-77
2022/08/21 03:40:49;;;;;;;0.00;0.00;;;18.80;99.90;;;;;;5024546;28;20073;-77
2022/08/21 03:43:16;;;;;;;0.25;0.25;;;18.80;99.90;;;;;;5046515;28;20048;-76
2022/08/21 03:45:43;;;;;;;0.22;0.20;;;18.80;99.90;;;;;;5023153;28;20045;-77
2022/08/21 03:48:11;;;;;;;0.43;0.43;;;18.80;99.90;;;;;;5037128;28;20048;-76
2022/08/21 03:50:42;;;;;;;0.40;0.40;;;18.80;99.90;;;;;;5037138;28;20378;-76
2022/08/21 03:53:11;;;;;;;0.77;0.60;;;18.80;99.90;;;;;;5052168;28;20523;-77
2022/08/21 03:55:40;;;;;;;0.30;0.30;;;18.80;99.90;;;;;;5036296;28;20049;-77
2022/08/21 03:58:07;;;;;;;0.20;0.20;;;18.80;99.90;;;;;;5037048;28;20055;-76
2022/08/21 04:00:35;;;;;;;0.50;0.28;;;18.80;99.90;;;;;;5038269;28;20411;-77
2022/08/21 04:03:02;;;;;;;0.00;0.00;;;18.80;99.90;;;;;;5039927;28;20103;-77
2022/08/21 04:05:29;;;;;;;0.70;0.63;;;18.80;99.90;;;;;;5055499;28;20454;-76
2022/08/21 04:07:59;;;;;;;0.08;0.08;;;18.80;99.90;;;;;;5037496;28;20110;-77
2022/08/21 04:10:27;;;;;;;0.00;0.00;;;18.70;99.90;;;;;;5055267;28;20558;-76
2022/08/21 04:12:56;;;;;;;0.00;0.00;;;18.80;99.90;;;;;;5020264;28;20050;-76
2022/08/21 04:15:25;;;;;;;0.00;0.00;;;18.80;99.90;;;;;;5035246;28;20037;-76
2022/08/21 04:17:54;;;;;;;0.38;0.35;;;18.70;99.90;;;;;;5035382;28;20500;-76
2022/08/21 04:20:23;;;;;;;0.00;0.00;;;18.80;99.90;;;;;;5050294;28;20546;-76
2022/08/21 04:22:51;;;;;;;0.28;0.28;;;18.70;99.90;;;;;;5054421;28;20500;-76
2022/08/21 04:25:20;;;;;;;0.10;0.10;;;18.70;99.90;;;;;;5049204;28;20040;-76
2022/08/21 04:27:48;;;;;;;0.00;0.00;;;18.70;99.90;;;;;;5038324;28;20554;-76
2022/08/21 04:30:18;;;;;;;0.00;0.00;;;18.70;99.90;;;;;;5034545;28;20038;-75
2022/08/21 04:32:46;;;;;;;0.05;0.05;;;18.80;99.90;;;;;;5031575;28;20397;-75
2022/08/21 04:35:15;;;;;;;0.15;0.15;;;18.70;99.90;;;;;;5042570;28;20045;-76
2022/08/21 04:37:43;;;;;;;1.95;0.90;;;18.70;99.90;;;;;;5034474;28;20037;-76
2022/08/21 04:40:12;;;;;;;0.30;0.30;;;18.70;99.90;;;;;;5016651;28;20061;-76
2022/08/21 04:42:45;;;;;;;0.20;0.20;;;18.70;99.90;;;;;;5034159;28;20496;-76
2022/08/21 04:45:20;;;;;;;0.10;0.10;;;18.80;99.90;;;;;;5034393;28;20049;-77
2022/08/21 04:47:52;;;;;;;2.03;0.70;;;18.80;99.90;;;;;;5052292;28;20072;-77
2022/08/21 04:50:19;;;;;;;0.35;0.32;;;18.80;99.90;;;;;;5036576;28;20087;-76
2022/08/21 04:53:04;;;;;;;0.00;0.00;;;18.80;99.90;;;;;;5036211;28;20048;-76
2022/08/21 04:55:32;;;;;;;0.00;0.00;;;18.80;99.90;;;;;;5036172;28;20523;-76
2022/08/21 04:58:01;;;;;;;0.15;0.15;;;18.80;99.90;;;;;;5053538;28;20075;-76
2022/08/21 05:00:29;;;;;;;0.00;0.00;;;18.80;99.90;;;;;;5040215;28;20041;-76
2022/08/21 05:02:58;;;;;;;0.10;0.10;;;18.80;99.90;;;;;;5016044;28;20099;-76
2022/08/21 05:05:26;;;;;;;0.10;0.10;;;18.90;99.90;;;;;;5033873;28;20124;-75
2022/08/21 05:07:54;;;;;;;0.00;0.00;;;18.90;99.90;;;;;;5034116;28;20041;-75
2022/08/21 05:10:22;;;;;;;0.22;0.22;;;18.90;99.90;;;;;;5033673;28;20497;-76
2022/08/21 05:12:50;;;;;;;0.17;0.17;;;18.90;99.90;;;;;;5049465;28;20412;-76
2022/08/21 05:15:17;;;;;;;0.15;0.13;;;18.90;99.90;;;;;;5035675;28;20507;-76
2022/08/21 05:17:46;;;;;;;0.52;0.52;;;18.90;99.90;;;;;;5053628;28;20569;-76
2022/08/21 05:20:14;;;;;;;0.05;0.00;;;18.80;99.90;;;;;;5052747;28;20132;-76
2022/08/21 05:22:42;;;;;;;0.00;0.00;;;18.80;99.90;;;;;;5053852;28;20072;-75
2022/08/21 05:25:10;;;;;;;0.00;0.00;;;18.70;99.90;;;;;;5046630;28;20480;-76
2022/08/21 05:27:38;;;;;;;0.00;0.00;;;18.70;99.90;;;;;;5065475;28;20120;-75
2022/08/21 05:30:08;;;;;;;0.10;0.10;;;18.70;99.90;;;;;;5053663;28;20132;-76
2022/08/21 05:32:36;;;;;;;0.10;0.10;;;18.70;99.90;;;;;;5035658;28;20131;-76
2022/08/21 05:35:06;;;;;;;0.03;0.03;;;18.70;99.90;;;;;;5042476;28;20045;-76
2022/08/21 05:37:33;;;;;;;0.00;0.00;;;18.80;99.90;;;;;;5033388;28;20037;-76
2022/08/21 05:40:01;;;;;;;0.10;0.10;;;18.80;99.90;;;;;;5033111;28;20037;-76
2022/08/21 05:42:29;;;;;;;0.00;0.00;;;18.80;99.90;;;;;;5015449;28;20080;-75
2022/08/21 05:44:56;;;;;;;0.10;0.10;;;18.80;99.90;;;;;;5019047;28;20512;-77
2022/08/21 05:47:23;;;;;;;0.10;0.10;;;18.80;99.90;;;;;;5053821;28;20051;-76
2022/08/21 05:49:50;;;;;;;4.57;1.90;;;18.80;99.90;;;;;;5039787;28;20484;-76
2022/08/21 05:52:21;;;;;;;1.50;1.40;;;18.80;99.90;;;;;;5050149;28;20037;-77
2022/08/21 05:54:49;;;;;;;0.43;0.43;;;18.80;99.90;;;;;;5053172;28;20369;-75
2022/08/21 05:57:16;;;;;;;0.00;0.00;;;18.70;99.90;;;;;;5048516;28;20037;-75
2022/08/21 05:59:44;;;;;;;0.43;0.43;;;18.80;99.90;;;;;;5035650;28;20412;-76
2022/08/21 06:02:11;;;;;;;1.23;1.17;;;18.70;99.90;;;;;;5038715;28;20045;-76
2022/08/21 06:04:39;;;;;;;0.20;0.20;;;18.60;99.90;;;;;;5053010;28;20049;-76
2022/08/21 06:07:08;;;;;;;0.15;0.15;;;18.50;99.90;;;;;;5053083;28;20045;-75
2022/08/21 06:09:37;;;;;;;0.00;0.00;;;18.50;99.90;;;;;;5053221;28;20476;-75
2022/08/21 06:12:06;;;;;;;0.70;0.70;;;18.60;99.90;;;;;;5026952;28;20056;-76
2022/08/21 06:14:33;;;;;;;0.00;0.00;;;18.60;99.90;;;;;;5032690;28;20435;-76
2022/08/21 06:17:04;;;;;;;0.30;0.30;;;18.60;99.90;;;;;;5033055;28;20042;-76
2022/08/21 06:19:31;;;;;;;0.40;0.40;;;18.60;99.90;;;;;;5036956;28;20064;-76
2022/08/21 06:21:58;;;;;;;0.15;0.15;;;18.60;99.90;;;;;;5041807;28;20092;-76
2022/08/21 06:24:26;;;;;;;7.75;1.60;;;18.60;99.90;;;;;;5056041;28;20044;-76
2022/08/21 06:26:55;;;;;;;0.00;0.00;;;18.70;99.90;;;;;;5037270;28;20095;-75
2022/08/21 06:29:23;;;;;;;0.45;0.45;;;18.70;99.90;;;;;;5053115;28;20037;-75
2022/08/21 06:31:52;;;;;;;0.20;0.20;;;18.70;99.90;;;;;;5053202;28;20070;-76
2022/08/21 06:34:19;;;;;;;0.17;0.17;;;18.70;99.90;;;;;;5031631;28;20062;-75
2022/08/21 06:36:47;;;;;;;0.00;0.00;;;18.70;99.90;;;;;;5022664;28;20095;-76
2022/08/21 06:39:14;;;;;;;0.05;0.05;;;18.70;99.90;;;;;;5037475;28;20069;-75
2022/08/21 06:41:41;;;;;;;0.05;0.05;;;18.70;99.90;;;;;;5037225;28;20140;-76
2022/08/21 06:44:10;;;;;;;0.40;0.40;;;18.70;99.90;;;;;;5043369;28;20049;-76
2022/08/21 06:46:38;;;;;;;0.00;0.00;;;18.70;99.90;;;;;;5035171;28;20131;-75
2022/08/21 06:49:05;;;;;;;0.52;0.45;;;18.70;99.90;;;;;;5038734;28;20385;-75
2022/08/21 06:51:32;;;;;;;0.00;0.00;;;18.70;99.90;;;;;;5054214;28;20041;-75
2022/08/21 06:54:00;;;;;;;0.10;0.10;;;18.50;99.90;;;;;;5035136;28;20053;-75
2022/08/21 06:56:27;;;;;;;1.05;0.95;;;18.50;99.90;;;;;;5046645;28;20049;-76
2022/08/21 06:58:55;;;;;;;0.00;0.00;;;18.50;99.90;;;;;;5027340;28;20378;-76
2022/08/21 07:01:26;;;;;;;0.82;0.50;;;18.50;99.90;;;;;;5036565;28;20045;-75
2022/08/21 07:03:54;;;;;;;0.03;0.03;;;18.50;99.90;;;;;;5047795;28;20082;-76
2022/08/21 07:06:21;;;;;;;0.00;0.00;;;18.50;99.90;;;;;;5036243;28;20079;-76
2022/08/21 07:08:49;;;;;;;0.20;0.20;;;18.40;99.90;;;;;;5036035;28;20045;-76
2022/08/21 07:11:20;;;;;;;0.00;0.00;;;18.40;99.90;;;;;;5036289;28;20473;-76
2022/08/21 07:13:48;;;;;;;0.00;0.00;;;18.50;99.90;;;;;;5036352;28;20531;-76
2022/08/21 07:16:15;;;;;;;0.45;0.43;;;18.50;99.90;;;;;;5055890;28;20411;-75
2022/08/21 07:18:44;;;;;;;0.13;0.13;;;18.50;99.90;;;;;;5055688;28;20099;-75
2022/08/21 07:21:12;;;;;;;0.00;0.00;;;18.50;99.90;;;;;;5027213;28;20069;-76
2022/08/21 07:23:42;;;;;;;0.00;0.00;;;18.50;99.90;;;;;;5027339;28;20045;-75
2022/08/21 07:26:09;;;;;;;0.10;0.10;;;18.40;99.90;;;;;;5075648;28;20098;-76
2022/08/21 07:28:37;;;;;;;0.20;0.13;;;18.40;99.90;;;;;;5076035;28;20044;-77
2022/08/21 07:31:05;;;;;;;0.77;0.77;;;18.40;99.90;;;;;;5060609;28;20041;-76
2022/08/21 07:33:35;;;;;;;0.00;0.00;;;18.40;99.90;;;;;;5065128;28;20040;-75
2022/08/21 07:36:05;;;;;;;0.10;0.10;;;18.40;99.90;;;;;;5056555;28;20036;-75
2022/08/21 07:38:32;;;;;;;0.43;0.35;;;18.40;99.90;;;;;;5036437;28;20155;-76
2022/08/21 07:41:01;;;;;;;0.10;0.10;;;18.40;99.90;;;;;;5035156;28;20034;-75
2022/08/21 07:43:29;;;;;;;0.32;0.32;;;18.40;99.90;;;;;;5035422;28;20076;-76
2022/08/21 07:45:57;;;;;;;0.10;0.10;;;18.30;99.90;;;;;;5035291;28;20088;-76
2022/08/21 07:48:25;;;;;;;0.03;0.03;;;18.30;99.90;;;;;;5035505;28;20068;-75
2022/08/21 07:50:52;;;;;;;0.00;0.00;;;18.40;99.90;;;;;;5019993;28;20049;-75
2022/08/21 07:53:21;;;;;;;0.05;0.05;;;18.40;99.90;;;;;;5043632;28;20107;-76
2022/08/21 07:55:48;;;;;;;0.10;0.10;;;18.30;99.90;;;;;;5035418;28;20049;-76
2022/08/21 07:58:15;;;;;;;0.32;0.20;;;18.30;99.90;;;;;;5037004;28;20045;-75
2022/08/21 08:00:43;;;;;;;0.52;0.50;;;18.30;99.90;;;;;;5055149;28;20091;-75
2022/08/21 08:03:10;;;;;;;0.00;0.00;;;18.30;99.90;;;;;;5055113;28;20049;-78
2022/08/21 08:05:38;;;;;;;0.55;0.40;;;18.20;99.90;;;;;;5047767;28;20140;-75
2022/08/21 08:08:06;;;;;;;0.60;0.55;;;18.20;99.90;;;;;;5034806;28;20133;-76
2022/08/21 08:10:35;;;;;;;4.75;0.38;;;18.20;99.90;;;;;;5017198;28;20555;-76
2022/08/21 08:13:02;;;;;;;0.00;0.00;;;18.20;99.90;;;;;;5047493;28;20048;-76
2022/08/21 08:15:30;;;;;;;0.00;0.00;;;18.10;99.90;;;;;;5046836;28;20443;-75
2022/08/21 08:17:58;;;;;;;0.30;0.30;;;18.10;99.90;;;;;;5049639;28;20416;-75
2022/08/21 08:20:26;;;;;;;0.50;0.50;;;18.20;99.90;;;;;;5050440;28;20033;-76
2022/08/21 08:22:54;;;;;;;0.55;0.52;;;18.20;99.90;;;;;;5046853;28;20045;-76
2022/08/21 08:25:23;;;;;;;0.52;0.52;;;18.20;99.90;;;;;;5060415;28;20036;-76
2022/08/21 08:27:52;;;;;;;1.08;0.90;;;18.30;99.90;;;;;;5035657;28;20084;-76
2022/08/21 08:30:21;;;;;;;0.60;0.60;;;18.30;99.90;;;;;;5050352;28;20044;-76
2022/08/21 08:32:49;;;;;;;0.32;0.32;;;18.20;99.90;;;;;;5040879;28;20064;-76
2022/08/21 08:35:17;;;;;;;0.22;0.22;;;18.20;99.90;;;;;;5047309;28;20373;-76
2022/08/21 08:37:45;;;;;;;0.00;0.00;;;18.10;99.90;;;;;;5050254;28;20527;-75
2022/08/21 08:40:19;;;;;;;0.10;0.10;;;18.20;99.90;;;;;;5044831;28;20484;-76
2022/08/21 08:42:50;;;;;;;3.20;0.98;;;18.20;99.90;;;;;;5054349;28;20041;-76
2022/08/21 08:45:21;;;;;;;0.20;0.20;;;18.20;99.90;;;;;;5050615;28;20045;-76
2022/08/21 08:47:57;;;;;;;1.77;0.77;;;18.30;99.90;;;;;;5035958;28;20420;-76
2022/08/21 08:50:29;;;;;;;0.00;0.00;;;18.40;99.90;;;;;;5043240;28;20476;-76
2022/08/21 08:53:01;;;;;;;0.10;0.10;;;18.40;99.90;;;;;;5035841;28;20080;-76
2022/08/21 08:55:34;;;;;;;0.35;0.35;;;18.40;99.90;;;;;;5045651;28;20040;-76
2022/08/21 08:58:03;;;;;;;0.43;0.25;;;18.50;99.90;;;;;;5045862;28;20050;-77
2022/08/21 09:00:33;;;;;;;0.13;0.13;;;18.60;99.90;;;;;;5017119;28;20034;-76
2022/08/21 09:03:02;;;;;;;0.80;0.45;;;18.60;99.90;;;;;;5017632;28;20093;-76
2022/08/21 09:05:38;;;;;;;0.00;0.00;;;18.80;99.90;;;;;;5016134;28;20096;-76
2022/08/21 09:08:24;;;;;;;0.10;0.10;;;18.70;99.90;;;;;;5014614;28;20041;-75
2022/08/21 09:10:58;;;;;;;;;;;18.80;99.90;;;;;;5034899;28;20084;-76
2022/08/21 09:13:35;;;;;;;0.00;0.00;;;18.80;99.90;;;;;;5032668;28;19925;-76
2022/08/21 09:16:12;;;;;;;0.10;0.10;;;18.80;99.90;;;;;;5033153;28;20087;-76
2022/08/21 09:18:49;;;;;;;0.15;0.15;;;18.90;99.90;;;;;;5021255;28;20049;-76
2022/08/21 09:21:22;;;;;;;0.95;0.85;;;18.90;99.90;;;;;;5035357;28;20039;-76
2022/08/21 09:23:56;;;;;;;0.10;0.10;;;18.90;99.90;;;;;;5023873;28;20046;-76
2022/08/21 09:26:26;;;;;;;0.28;0.28;;;18.90;99.90;;;;;;5050219;28;20049;-75
2022/08/21 09:28:56;;;;;;;2.05;0.80;;;18.90;99.90;;;;;;5045661;28;20069;-76
2022/08/21 09:31:27;;;;;;;0.00;0.00;;;18.90;99.90;;;;;;5027674;28;20492;-74
2022/08/21 09:34:03;;;;;;;0.57;0.43;;;19.00;99.90;;;;;;5021586;28;20046;-76
2022/08/21 09:36:38;;;;;;;0.80;0.43;;;19.10;99.90;;;;;;5035970;28;20493;-76
2022/08/21 09:39:07;;;;;;;0.40;0.40;;;19.10;99.90;;;;;;5033529;28;20056;-76
2022/08/21 09:41:36;;;;;;;0.00;0.00;;;19.00;99.90;;;;;;5032111;28;20048;-77
2022/08/21 09:44:04;;;;;;;0.03;0.03;;;19.10;99.90;;;;;;5029420;28;20093;-76
2022/08/21 09:46:35;;;;;;;0.75;0.35;;;19.10;99.90;;;;;;5016443;28;20045;-77
2022/08/21 09:49:05;;;;;;;2.65;1.30;;;19.20;99.90;;;;;;5022462;28;20140;-77
2022/08/21 09:51:34;;;;;;;3.00;0.73;;;19.20;99.90;;;;;;5026520;28;20057;-77
2022/08/21 09:54:15;;;;;;;0.47;0.47;;;19.20;99.90;;;;;;5003120;28;20129;-77
2022/08/21 09:59:41;;;;;;;0.13;0.13;;;19.20;99.90;;;;;;5038104;28;20056;-76
2022/08/21 10:02:25;;;;;;;0.00;0.00;;;19.20;99.90;;;;;;5055629;28;20040;-77
2022/08/21 10:04:55;;;;;;;0.32;0.30;;;19.10;99.90;;;;;;5072907;28;20083;-77
2022/08/21 10:07:27;;;;;;;0.00;0.00;;;19.10;99.90;;;;;;5055263;28;20061;-75
2022/08/21 10:10:03;;;;;;;0.00;0.00;;;19.00;99.90;;;;;;5044134;28;20087;-77
2022/08/21 10:12:39;;;;;;;0.25;0.25;;;19.00;99.90;;;;;;5044954;28;20049;-76
2022/08/21 10:15:16;;;;;;;0.17;0.17;;;19.00;99.90;;;;;;5044565;28;20052;-76
2022/08/21 10:17:52;;;;;;;0.00;0.00;;;19.00;99.90;;;;;;5036189;28;20045;-75
2022/08/21 10:20:24;;;;;;;0.10;0.10;;;19.10;99.90;;;;;;5047586;28;20049;-77
2022/08/21 10:23:02;;;;;;;0.08;0.08;;;19.10;99.90;;;;;;5041229;28;20033;-76
2022/08/21 10:25:36;;;;;;;0.25;0.25;;;19.30;99.90;;;;;;5053168;28;20507;-77
2022/08/21 10:28:12;;;;;;;0.68;0.68;;;19.30;99.90;;;;;;5024341;28;20041;-76
2022/08/21 10:30:47;;;;;;;0.00;0.00;;;19.30;99.90;;;;;;5036850;28;20412;-75
2022/08/21 10:33:26;;;;;;;0.95;0.73;;;19.30;99.90;;;;;;5047287;28;20040;-75
2022/08/21 10:36:00;;;;;;;0.00;0.00;;;19.30;99.90;;;;;;5042501;28;20068;-76
2022/08/21 10:38:57;;;;;;;1.00;0.70;;;19.30;99.90;;;;;;5050651;28;20072;-76
2022/08/21 10:41:36;;;;;;;0.70;0.70;;;19.30;99.90;;;;;;5056153;28;20449;-75
2022/08/21 10:44:26;;;;;;;0.20;0.20;;;19.30;99.90;;;;;;5037891;28;20057;-75
2022/08/21 10:47:00;;;;;;;0.22;0.20;;;19.30;99.90;;;;;;5056899;28;20048;-77
2022/08/21 10:49:38;;;;;;;0.20;0.20;;;19.30;99.90;;;;;;5056461;28;20103;-76
2022/08/21 10:52:28;;;;;;;3.53;1.45;;;19.40;99.90;;;;;;5056623;28;20476;-76
2022/08/21 10:55:01;;;;;;;0.80;0.77;;;19.40;99.90;;;;;;5056571;28;20040;-76
2022/08/21 10:57:40;;;;;;;0.15;0.15;;;19.50;99.90;;;;;;5056256;28;20044;-76
2022/08/21 11:00:10;;;;;;;0.43;0.20;;;19.40;99.90;;;;;;5056754;28;20049;-76
2022/08/21 11:02:42;;;;;;;0.30;0.30;;;19.40;99.90;;;;;;5056259;28;20044;-76
2022/08/21 11:05:18;;;;;;;3.30;0.80;;;19.50;99.90;;;;;;5056284;28;20045;-76
2022/08/21 11:07:52;;;;;;;0.00;0.00;;;19.50;99.90;;;;;;5056745;28;20045;-76
2022/08/21 11:10:25;;;;;;;0.47;0.47;;;19.50;99.90;;;;;;5056060;28;20037;-76
2022/08/21 11:12:56;;;;;;;0.00;0.00;;;19.50;99.90;;;;;;5055718;28;20106;-76
2022/08/21 11:15:44;;;;;;;0.43;0.43;;;19.50;99.90;;;;;;5038262;28;20045;-76
2022/08/21 11:18:23;;;;;;;0.10;0.10;;;19.70;99.90;;;;;;5056061;28;20060;-77
2022/08/21 11:21:00;;;;;;;4.85;0.40;;;19.70;99.90;;;;;;5055708;28;20528;-76
2022/08/21 11:23:37;;;;;;;0.17;0.17;;;19.70;99.90;;;;;;5056247;28;20543;-75
2022/08/21 11:26:10;;;;;;;0.15;0.15;;;19.70;99.90;;;;;;5056060;28;20179;-76
2022/08/21 11:28:45;;;;;;;0.45;0.45;;;19.80;99.90;;;;;;5055814;28;20057;-75
2022/08/21 11:31:23;;;;;;;1.48;1.25;;;19.80;99.90;;;;;;5056032;28;20033;-74
2022/08/21 11:34:05;;;;;;;0.00;0.00;;;20.00;99.90;;;;;;5055435;28;20049;-75
2022/08/21 11:36:39;;;;;;;0.65;0.50;;;20.00;99.90;;;;;;5056361;28;20049;-76
2022/08/21 11:39:17;;;;;;;0.20;0.20;;;20.10;99.90;;;;;;5055430;28;20458;-75
2022/08/21 11:41:53;;;;;;;0.68;0.60;;;20.10;99.90;;;;;;5055566;28;20045;-75
2022/08/21 11:44:32;;;;;;;0.47;0.35;;;20.10;99.90;;;;;;5055077;28;20045;-75
2022/08/21 11:47:06;;;;;;;0.03;0.03;;;20.20;99.90;;;;;;5055776;28;20471;-75
2022/08/21 11:49:50;;;;;;;0.00;0.00;;;20.10;99.90;;;;;;5037422;28;20072;-75
2022/08/21 11:52:24;;;;;;;0.05;0.05;;;20.10;99.90;;;;;;5037782;28;20103;-75
2022/08/21 11:54:58;;;;;;;0.00;0.00;;;20.00;99.90;;;;;;5054880;28;20522;-74
2022/08/21 11:57:31;;;;;;;1.92;1.08;;;20.00;99.90;;;;;;5055184;28;20037;-74
2022/08/21 12:00:03;;;;;;;0.03;0.03;;;20.00;99.90;;;;;;5055561;28;20072;-74
2022/08/21 12:02:45;;;;;;;0.40;0.40;;;20.00;99.90;;;;;;5055474;28;20051;-75
2022/08/21 12:05:25;;;;;;;0.10;0.10;;;20.00;99.90;;;;;;5055509;28;20499;-75
2022/08/21 12:08:07;;;;;;;0.10;0.10;;;20.00;99.90;;;;;;5057831;28;20041;-75
2022/08/21 12:10:37;;;;;;;0.10;0.10;;;20.00;99.90;;;;;;5056051;28;20049;-76
2022/08/21 12:13:13;;;;;;;0.43;0.43;;;20.10;99.90;;;;;;5054993;28;20558;-76
2022/08/21 12:15:40;;;;;;;;;;;20.10;99.90;;;;;;5055578;28;20119;-76
2022/08/21 12:18:22;;;;;;;0.00;0.00;;;20.10;99.90;;;;;;5055705;28;19944;-75
2022/08/21 12:21:02;;;;;;;0.10;0.10;;;20.10;99.90;;;;;;5037210;28;20534;-76
2022/08/21 12:23:34;;;;;;;4.95;2.22;;;20.10;99.90;;;;;;5055384;28;20049;-75
2022/08/21 12:26:11;;;;;;;2.92;0.25;;;20.10;99.90;;;;;;5055140;28;20415;-76
2022/08/21 12:28:39;;;;;;;1.17;0.65;;;20.10;99.90;;;;;;5055148;28;20120;-76
2022/08/21 12:31:19;;;;;;;0.00;0.00;;;20.00;99.90;;;;;;5056319;28;20048;-78
2022/08/21 12:33:54;;;;;;;0.38;0.38;;;20.00;99.90;;;;;;5060023;28;20045;-78
2022/08/21 12:36:25;;;;;;;0.00;0.00;;;20.10;99.90;;;;;;5038003;28;20099;-77
2022/08/21 12:38:58;;;;;;;2.17;0.50;;;20.10;99.90;;;;;;5040175;28;20045;-78
2022/08/21 12:41:29;;;;;;;0.47;0.47;;;20.10;99.90;;;;;;5040849;28;20037;-77
2022/08/21 12:44:01;;;;;;;0.10;0.10;;;20.20;99.90;;;;;;5040746;28;20100;-76
2022/08/21 12:46:35;;;;;;;1.85;0.75;;;20.30;99.90;;;;;;5038454;28;20493;-76
2022/08/21 12:49:09;;;;;;;0.10;0.10;;;20.40;99.90;;;;;;5038811;28;20045;-76
2022/08/21 12:51:50;;;;;;;64.35;25.50;;;20.40;99.90;;;;;;5050882;28;20045;-76
2022/08/21 12:54:27;;;;;;;3.33;1.83;;;20.40;99.90;;;;;;5036247;28;20052;-77
2022/08/21 12:56:59;;;;;;;0.32;0.32;;;20.50;99.90;;;;;;5041675;28;20507;-77
2022/08/21 12:59:26;;;;;;;0.15;0.15;;;20.50;99.90;;;;;;5059708;28;20130;-77
2022/08/21 13:01:55;;;;;;;0.10;0.10;;;20.60;99.90;;;;;;5053771;28;20443;-76
2022/08/21 13:04:27;;;;;;;1.50;1.13;;;20.70;99.90;;;;;;5034091;28;20044;-76
2022/08/21 13:06:59;;;;;;;0.55;0.55;;;20.70;99.90;;;;;;5016407;28;20049;-76